Main page
METAR-TAF:

METAR-TAF

Airports :

Cork Airport

Cork, Ireland

latitude: 51-51N, longitude: 008-29W, elevation: 153 m

Current weather observation

The report was made 31 minutes ago, at 07:00 UTC
Wind 9 kt from the North/Northwest
Temperature 0°C
Humidity 100%
Pressure 1015 hPa
Visibility: 0400 m
Broken clouds at a height of 100 ft
Broken clouds at a height of 200 ft
fog

METAR: EICK 080700Z 33009KT 0400 R16/0650 R34/0750 FG BKN001 BKN002 00/00 Q1015 NOSIG

Time: 07:31 (07:31 UTC)

Forecast

The report was made 1 hour and 14 minutes ago, at 06:17 UTC
Forecast valid from 08 at 06 UTC to 09 at 06 UTC
Wind 7 kt from the North
Visibility 10 km or more
Scattered clouds at a height of 1200 ft
Probability 40% :
Temporary
from 08 at 06 UTC to 08 at 09 UTC
Visibility: 3000 m
mist
Probability 30% :
Temporary
from 09 at 02 UTC to 09 at 06 UTC
Visibility: 0800 m
Broken clouds at a height of 100 ft
freezing fog

TAF: EICK 080617Z 0806/0906 35007KT 9999 SCT012 PROB40 TEMPO 0806/0809 3000 BR PROB30 TEMPO 0902/0906 0800 FZFG BKN001

Weather observations and forecasts of more than 4000 airports (METAR and TAF reports).

The available stations are represented by yellow and red dots on the map.

Hover mouse over dot to see the name of the station.

Then click to see weather observations and forecasts.

To change the map : click on the green buttons with a black cross to zoom in, on the green button with a dash to zoom out, or on the green arrows for adjacent maps.


METAR-TAF: